Flight Track Log - Related Links

Times and Time Zones

All times are in EDT time to prevent confusion due to time zone crossing. See the EGF3137 flight status page for this flight to view local times or setup timezone preferences in your user account.

Time Position Orientation Groundspeed Altitude Reporting Facility
EDT Latitude Longitude Course Direction KTS MPH feet Rate Location/Type
Wed 11:58:18 AM 42.0000 -87.9500 261° West 171 197 1,900  Level Chicago TRACON
Wed 11:59:24 AM 42.0000 -88.0333 270° West 218 251 4,000 1,933 Climbing Chicago TRACON
Wed 12:00:00 PM 41.9275 -88.3624 255° West  Level FlightAware Approximate
Wed 12:00:47 PM 41.9861 -88.1572 261° West 246 283 6,700  Level Chicago Center
Wed 12:01:00 PM 41.9108 -88.5174 261° West  Level FlightAware Approximate
Wed 12:01:49 PM 41.9792 -88.2611 265° West 277 319 9,400  Level Chicago Center
Wed 12:02:00 PM 41.8925 -88.6730 261° West  Level FlightAware Approximate
Wed 12:02:52 PM 41.9714 -88.3864 265° West 283 326 12,100  Level Chicago Center
Wed 12:03:00 PM 41.8744 -88.8285 261° West  Level FlightAware Approximate
Wed 12:03:54 PM 41.9519 -88.4939 256° West 296 341 14,100  Level Chicago Center
Wed 12:04:56 PM 41.9325 -88.6058 257° West 307 353 15,700 1,258 Climbing Chicago Center
Wed 12:05:58 PM 41.9119 -88.7306 258° West 339 390 16,700 968 Climbing Chicago Center
Wed 12:07:00 PM 41.8867 -88.8647 256° West 370 426 17,700 871 Climbing Chicago Center
Wed 12:08:02 PM 41.8542 -89.0361 256° West 397 457 18,500 871 Climbing Chicago Center
Wed 12:09:04 PM 41.8289 -89.1850 257° West 412 474 19,500 1,113 Climbing Chicago Center
Wed 12:10:06 PM 41.8058 -89.3397 259° West 423 487 20,800 1,306 Climbing Chicago Center
Wed 12:11:08 PM 41.7858 -89.4956 260° West 428 493 22,200 1,306 Climbing Chicago Center
Wed 12:12:10 PM 41.7719 -89.6675 264° West 429 494 23,500 1,113 Climbing Chicago Center
Wed 12:13:12 PM 41.7667 -89.8294 268° West 438 504 24,500 968 Climbing Chicago Center
Wed 12:14:14 PM 41.7583 -89.9936 266° West 443 510 25,500 960 Climbing Chicago Center
Wed 12:15:17 PM 41.7506 -90.1592 266° West 446 513 26,500 1,056 Climbing Chicago Center
Wed 12:16:19 PM 41.7403 -90.3611 266° West 460 529 27,700 1,065 Climbing Chicago Center
Wed 12:17:21 PM 41.7319 -90.5294 266° West 455 524 28,700 968 Climbing Chicago Center
Wed 12:18:23 PM 41.7236 -90.6881 266° West 449 517 29,700 968 Climbing Chicago Center
Wed 12:19:25 PM 41.7133 -90.8561 265° West 453 521 30,700 1,065 Climbing Chicago Center
Wed 12:20:27 PM 41.7028 -91.0561 266° West 453 521 31,900 629 Climbing Chicago Center
Wed 12:21:29 PM 41.6936 -91.2247 266° West 456 525 32,000 48 Climbing Chicago Center
Wed 12:22:31 PM 41.6833 -91.3986 266° West 468 539 32,000  Level Chicago Center
Wed 12:23:33 PM 41.6731 -91.5714 266° West 469 540 32,000  Level Chicago Center
Wed 12:24:35 PM 41.6625 -91.7439 265° West 470 541 32,000  Level Chicago Center
Wed 12:25:37 PM 41.6522 -91.9178 266° West 471 542 32,000  Level Chicago Center
Wed 12:26:40 PM 41.6392 -92.1242 265° West 469 540 32,000  Level Chicago Center
Wed 12:27:42 PM 41.6275 -92.2969 265° West 468 539 32,000  Level Chicago Center
Wed 12:28:44 PM 41.6158 -92.4683 265° West 468 539 32,000  Level Chicago Center
Wed 12:29:46 PM 41.6036 -92.6383 265° West 464 534 32,000  Level Chicago Center
Wed 12:30:56 PM 41.5886 -92.8672 265° West 466 536 32,000  Level Minneapolis Center
Wed 12:31:58 PM 41.5750 -93.0372 264° West 465 535 32,000  Level Minneapolis Center
Wed 12:33:01 PM 41.5622 -93.2072 264° West 466 536 32,000  Level Minneapolis Center
Wed 12:34:03 PM 41.5500 -93.3769 265° West 465 535 32,000  Level Minneapolis Center
Wed 12:35:05 PM 41.5369 -93.5478 264° West 467 537 32,000  Level Minneapolis Center
Wed 12:36:07 PM 41.5217 -93.7528 264° West 467 537 32,000  Level Minneapolis Center
Wed 12:37:09 PM 41.5089 -93.9194 264° West 464 534 32,000  Level Minneapolis Center
Wed 12:38:11 PM 41.4956 -94.0925 264° West 471 542 32,000  Level Minneapolis Center
Wed 12:39:25 PM 41.4786 -94.2758 263° West 478 550 32,000  Level Minneapolis Center
Wed 12:40:27 PM 41.4603 -94.4850 263° West 474 545 32,000  Level Minneapolis Center
Wed 12:41:29 PM 41.4489 -94.6244 264° West 474 545 32,000  Level Minneapolis Center
Wed 12:42:32 PM 41.4272 -94.8694 263° West 474 545 32,000  Level Minneapolis Center
Wed 12:43:34 PM 41.4108 -95.0422 263° West 470 541 32,000  Level Minneapolis Center
Wed 12:44:36 PM 41.3958 -95.2197 264° West 478 550 32,000  Level Minneapolis Center
Wed 12:45:38 PM 41.3789 -95.3961 263° West 481 554 32,000  Level Minneapolis Center
Wed 12:46:40 PM 41.3614 -95.5719 263° West 479 551 32,000  Level Minneapolis Center
Wed 12:47:42 PM 41.3447 -95.7503 263° West 483 556 32,000  Level Minneapolis Center
Wed 12:48:44 PM 41.3236 -95.9614 262° West 480 552 32,000  Level Minneapolis Center
Wed 12:49:46 PM 41.3058 -96.1375 262° West 480 552 32,000  Level Minneapolis Center
Wed 12:50:48 PM 41.2886 -96.3136 263° West 480 552 32,000  Level Minneapolis Center
Wed 12:51:50 PM 41.2686 -96.5056 262° West 479 551 32,000  Level Minneapolis Center
Wed 12:52:52 PM 41.2500 -96.6811 262° West 478 550 32,000  Level Minneapolis Center
Wed 12:53:54 PM 41.2303 -96.8550 261° West 477 549 32,000  Level Minneapolis Center
Wed 12:54:56 PM 41.2111 -97.0311 262° West 480 552 32,000  Level Minneapolis Center
Wed 12:55:58 PM 41.1919 -97.2056 262° West 480 552 32,000  Level Minneapolis Center
Wed 12:57:00 PM 41.1706 -97.4008 262° West 480 552 32,000  Level Minneapolis Center
Wed 12:58:03 PM 41.1508 -97.5764 262° West 481 554 32,000  Level Minneapolis Center
Wed 12:59:05 PM 41.1308 -97.7528 261° West 482 555 32,000  Level Minneapolis Center
Wed 01:00:07 PM 41.1103 -97.9281 261° West 481 554 32,000  Level Minneapolis Center
Wed 01:01:11 PM 41.0853 -98.1408 261° West 485 558 32,000  Level Minneapolis Center
Wed 01:02:13 PM 41.0642 -98.3172 261° West 484 557 32,000  Level Minneapolis Center
Wed 01:03:15 PM 41.0433 -98.5067 262° West 484 557 32,000  Level Minneapolis Center
Wed 01:04:17 PM 41.0219 -98.6825 261° West 484 557 32,000  Level Minneapolis Center
Wed 01:05:19 PM 41.0011 -98.8639 261° West 495 570 32,000  Level Minneapolis Center
Wed 01:06:21 PM 40.9836 -99.0411 263° West 491 565 32,000  Level Minneapolis Center
Wed 01:07:23 PM 40.9617 -99.2194 261° West 488 562 32,000  Level Minneapolis Center
Wed 01:08:25 PM 40.9372 -99.3958 260° West 488 562 32,000  Level Minneapolis Center
Wed 01:09:39 PM 40.9067 -99.6064 259° West 485 558 32,000  Level Minneapolis Center
Wed 01:10:36 PM 40.8800 -99.7814 259° West 487 560 32,000  Level Denver Center
Wed 01:11:38 PM 40.8511 -99.9719 259° West 487 560 32,000  Level Denver Center
Wed 01:12:40 PM 40.8219 -100.1681 259° West 486 559 32,000  Level Denver Center
Wed 01:13:42 PM 40.7964 -100.3342 259° West 483 556 32,000  Level Denver Center
Wed 01:14:44 PM 40.7706 -100.5014 259° West 481 554 32,000  Level Denver Center
Wed 01:15:46 PM 40.7375 -100.7003 258° West 491 565 32,000  Level Denver Center
Wed 01:16:48 PM 40.7117 -100.8739 259° West 486 559 32,000  Level Denver Center
Wed 01:17:50 PM 40.6853 -101.0417 258° West 484 557 32,000  Level Denver Center
Wed 01:18:52 PM 40.6542 -101.2353 258° West 483 556 32,000  Level Denver Center
Wed 01:19:54 PM 40.6275 -101.4008 258° West 483 556 32,000  Level Denver Center
Wed 01:20:56 PM 40.5956 -101.5925 258° West 480 552 32,000  Level Denver Center
Wed 01:21:59 PM 40.5678 -101.7581 258° West 483 556 32,000  Level Denver Center
Wed 01:23:01 PM 40.5358 -101.9506 258° West 482 555 32,000  Level Denver Center
Wed 01:24:03 PM 40.5089 -102.1158 258° West 483 556 32,000  Level Denver Center
Wed 01:25:05 PM 40.4761 -102.3069 257° West 482 555 32,000  Level Denver Center
Wed 01:26:07 PM 40.4469 -102.4708 257° West 481 554 32,000  Level Denver Center
Wed 01:27:21 PM 40.4144 -102.6619 257° West 481 554 32,000 -750 Level Denver Center
Wed 01:28:23 PM 40.3772 -102.8692 257° West 481 554 30,300 -2,032 Descending Denver Center
Wed 01:29:25 PM 40.3481 -103.0353 257° West 471 542 27,800 -2,400 Descending Denver Center
Wed 01:30:28 PM 40.3197 -103.1947 257° West 452 520 25,300 -2,400 Descending Denver Center
Wed 01:31:30 PM 40.2925 -103.3475 257° West 434 499 22,800 -2,419 Descending Denver Center
Wed 01:32:32 PM 40.2653 -103.4956 256° West 423 487 20,300 -2,468 Descending Denver Center
Wed 01:33:34 PM 40.2344 -103.6669 257° West 406 467 17,700 -1,597 Descending Denver Center
Wed 01:34:36 PM 40.2111 -103.7928 256° West 362 417 17,000 -484 Descending Denver Center
Wed 01:35:38 PM 40.2075 -103.9183 268° West 323 372 16,700 -919 Descending Denver Center
Wed 01:36:40 PM 40.2181 -104.0364 277° West 328 377 15,100 -1,548 Descending Denver Center
Wed 01:37:42 PM 40.2286 -104.1575 277° West 312 359 13,500 -1,403 Descending Denver Center
Wed 01:38:44 PM 40.2381 -104.2575 277° West 281 323 12,200 -1,016 Descending Denver Center
Wed 01:39:46 PM 40.2461 -104.3561 276° West 259 298 11,400 -871 Descending Denver Center
Wed 01:40:48 PM 40.2247 -104.4433 252° West 252 290 10,400 -968 Descending Denver Center
Wed 01:41:50 PM 40.2006 -104.5333 251° West 244 281 9,400 -774 Descending Denver Center
Wed 01:42:52 PM 40.1564 -104.5864 223° Southwest 223 257 8,800 -1,016 Descending Denver Center
Wed 01:43:54 PM 40.0964 -104.6206 204° Southwest 234 269 7,300 -1,452 Descending Denver Center

Login

Don't have an account? Register now (free) for customized features, flight alerts, and more!